Aérodrome :
LOGIN :

S'inscrire | Disclaimer

   EN    FR    IT 

 










Légende :    VFR   VFR Marginal   IFR   IFR Intensif   IFR Très Intensif
Visi : 
Plafond : 
>= 8 km
>= 3000ft
5 à 8 km
1000 à 3000 ft
1500m à 5 km
500 à 1000 ft
800 à 1500m
200 à 500 ft
< 800m
< 200 ft
Symboles :   Orages  Brouillard  Fortes neiges  Fortes précipitations  Vent > 20 kt
SIGMETs :   Divers  Orages  Givrage  Turbulence  Onde Orograph.  Cendres Volcan.






- Altitude de l'aérodrome : 37 ft


EHVL - Vlieland Heliport

DERNIER METAR :
  • 100625Z AUTO 11011KT 9999 OVC240 07/05 Q1029 BLU

METARs EXPIRÉS :
  • 100555Z AUTO 10009KT 9999 SCT250 OVC340 06/05 Q1029 BLU
  • 100525Z AUTO 10010KT 9999 OVC340 06/04 Q1029 BLU
  • 100511Z AUTO 10010KT 9999 FEW010 SCT270 OVC340 05/04 Q1028 BLU
  • 100455Z AUTO 11011KT 9999 FEW011 OVC260 06/04 Q1028 BLU
  • 100425Z AUTO 09010KT 9999 OVC260 06/04 Q1028 BLU
  • 100355Z AUTO 10011KT 9999 OVC250 06/04 Q1028 BLU

Prévision TAF périmée.



MET'MAP, la Météo Aéronautique d'un coup d'oeil ! - Copyright ORBIFLY Décembre 2007 - Disclaimer

ORBIFLY MET'MAP TEAM :

Programmation & Développement : Alexandra Zaïnal
Sur une idée originale de : Baudouin d'Aumeries
Assistance à la programmation : Marc-Olivier Méhu
Soutien technique & logistique : Manuel Goepfert

Contact : metmap@orbifly.com




SOURCES & CREDITS :

   NOAA